sensor_id;sensor_type;location;lat;lon;timestamp;pressure;altitude;pressure_sealevel;temperature;humidity
3590;BME280;1809;48.470;9.226;2023-07-24T00:01:48;-16748.13;;;20.82;100.00
3590;BME280;1809;48.470;9.226;2023-07-24T00:04:13;-16747.56;;;20.80;100.00
3590;BME280;1809;48.470;9.226;2023-07-24T00:06:39;-16747.00;;;20.78;100.00
3590;BME280;1809;48.470;9.226;2023-07-24T00:09:04;-16745.47;;;20.72;100.00
3590;BME280;1809;48.470;9.226;2023-07-24T00:11:29;-16742.41;;;20.61;100.00
3590;BME280;1809;48.470;9.226;2023-07-24T00:13:55;-16741.16;;;20.57;100.00
3590;BME280;1809;48.470;9.226;2023-07-24T00:16:20;-16739.88;;;20.52;100.00
3590;BME280;1809;48.470;9.226;2023-07-24T00:18:45;-16737.78;;;20.45;100.00
3590;BME280;1809;48.470;9.226;2023-07-24T00:21:11;-16737.38;;;20.43;100.00
3590;BME280;1809;48.470;9.226;2023-07-24T00:23:38;-16738.63;;;20.48;100.00
3590;BME280;1809;48.470;9.226;2023-07-24T00:26:04;-16734.72;;;20.33;100.00
3590;BME280;1809;48.470;9.226;2023-07-24T00:28:29;-16733.03;;;20.27;100.00
3590;BME280;1809;48.470;9.226;2023-07-24T00:30:54;-16732.06;;;20.24;100.00
3590;BME280;1809;48.470;9.226;2023-07-24T00:33:21;-16731.34;;;20.21;100.00
3590;BME280;1809;48.470;9.226;2023-07-24T00:35:46;-16732.34;;;20.25;100.00
3590;BME280;1809;48.470;9.226;2023-07-24T00:38:12;-16729.41;;;20.14;100.00
3590;BME280;1809;48.470;9.226;2023-07-24T00:40:37;-16728.56;;;20.11;100.00
3590;BME280;1809;48.470;9.226;2023-07-24T00:43:02;-16725.63;;;20.01;100.00
3590;BME280;1809;48.470;9.226;2023-07-24T00:45:28;-16726.19;;;20.03;100.00
3590;BME280;1809;48.470;9.226;2023-07-24T00:47:53;-16723.38;;;19.93;100.00
3590;BME280;1809;48.470;9.226;2023-07-24T00:50:19;-16724.09;;;19.95;100.00
3590;BME280;1809;48.470;9.226;2023-07-24T00:52:44;-16724.09;;;19.95;100.00
3590;BME280;1809;48.470;9.226;2023-07-24T00:55:12;-16718.63;;;19.75;100.00
3590;BME280;1809;48.470;9.226;2023-07-24T00:57:38;-16719.34;;;19.78;100.00
3590;BME280;1809;48.470;9.226;2023-07-24T01:00:04;-16714.88;;;19.62;100.00
3590;BME280;1809;48.470;9.226;2023-07-24T01:02:30;-16714.16;;;19.59;100.00
3590;BME280;1809;48.470;9.226;2023-07-24T01:04:56;-16714.03;;;19.59;100.00
3590;BME280;1809;48.470;9.226;2023-07-24T01:07:21;-16710.66;;;19.47;100.00
3590;BME280;1809;48.470;9.226;2023-07-24T01:09:47;-16708.72;;;19.40;100.00
3590;BME280;1809;48.470;9.226;2023-07-24T01:14:53;-16703.13;;;19.19;100.00
3590;BME280;1809;48.470;9.226;2023-07-24T01:17:23;-16702.84;;;19.18;100.00
3590;BME280;1809;48.470;9.226;2023-07-24T01:19:53;-16701.00;;;19.12;100.00
3590;BME280;1809;48.470;9.226;2023-07-24T01:27:25;-16701.44;;;19.13;100.00
3590;BME280;1809;48.470;9.226;2023-07-24T01:29:50;-16700.88;;;19.11;100.00
3590;BME280;1809;48.470;9.226;2023-07-24T01:32:16;-16701.44;;;19.13;100.00
3590;BME280;1809;48.470;9.226;2023-07-24T01:34:42;-16699.34;;;19.06;100.00
3590;BME280;1809;48.470;9.226;2023-07-24T01:37:09;-16699.19;;;19.05;100.00
3590;BME280;1809;48.470;9.226;2023-07-24T01:39:36;-16696.97;;;18.97;100.00
3590;BME280;1809;48.470;9.226;2023-07-24T01:42:02;-16696.53;;;18.96;100.00
3590;BME280;1809;48.470;9.226;2023-07-24T01:44:28;-16695.84;;;18.93;100.00
3590;BME280;1809;48.470;9.226;2023-07-24T01:46:53;-16696.69;;;18.96;100.00
3590;BME280;1809;48.470;9.226;2023-07-24T01:49:18;-16697.78;;;19.00;100.00
3590;BME280;1809;48.470;9.226;2023-07-24T01:51:44;-16698.34;;;19.02;100.00
3590;BME280;1809;48.470;9.226;2023-07-24T01:54:09;-16698.34;;;19.02;100.00
3590;BME280;1809;48.470;9.226;2023-07-24T01:56:36;-16697.50;;;18.99;100.00
3590;BME280;1809;48.470;9.226;2023-07-24T01:59:01;-16694.59;;;18.89;100.00
3590;BME280;1809;48.470;9.226;2023-07-24T02:01:26;-16694.44;;;18.88;100.00
3590;BME280;1809;48.470;9.226;2023-07-24T02:03:52;-16691.38;;;18.77;100.00
3590;BME280;1809;48.470;9.226;2023-07-24T02:06:17;-16688.56;;;18.67;100.00
3590;BME280;1809;48.470;9.226;2023-07-24T02:08:42;-16688.72;;;18.67;100.00
3590;BME280;1809;48.470;9.226;2023-07-24T02:11:13;-16687.16;;;18.62;100.00
3590;BME280;1809;48.470;9.226;2023-07-24T02:13:39;-16686.88;;;18.61;100.00
3590;BME280;1809;48.470;9.226;2023-07-24T02:16:04;-16684.22;;;18.51;100.00
3590;BME280;1809;48.470;9.226;2023-07-24T02:18:29;-16682.69;;;18.46;100.00
3590;BME280;1809;48.470;9.226;2023-07-24T02:20:55;-16681.84;;;18.43;100.00
3590;BME280;1809;48.470;9.226;2023-07-24T02:23:20;-16682.69;;;18.46;100.00
3590;BME280;1809;48.470;9.226;2023-07-24T02:25:45;-16685.34;;;18.55;100.00
3590;BME280;1809;48.470;9.226;2023-07-24T02:28:11;-16689.69;;;18.71;100.00
3590;BME280;1809;48.470;9.226;2023-07-24T02:30:39;-16691.09;;;18.76;100.00
3590;BME280;1809;48.470;9.226;2023-07-24T02:33:04;-16691.94;;;18.79;100.00
3590;BME280;1809;48.470;9.226;2023-07-24T02:35:30;-16686.59;;;18.60;100.00
3590;BME280;1809;48.470;9.226;2023-07-24T02:37:55;-16682.13;;;18.44;100.00
3590;BME280;1809;48.470;9.226;2023-07-24T02:40:20;-16681.00;;;18.40;100.00
3590;BME280;1809;48.470;9.226;2023-07-24T02:42:46;-16678.75;;;18.32;100.00
3590;BME280;1809;48.470;9.226;2023-07-24T02:45:11;-16680.16;;;18.37;100.00
3590;BME280;1809;48.470;9.226;2023-07-24T02:47:37;-16681.28;;;18.41;100.00
3590;BME280;1809;48.470;9.226;2023-07-24T02:50:03;-16682.53;;;18.45;100.00
3590;BME280;1809;48.470;9.226;2023-07-24T02:52:28;-16688.00;;;18.65;100.00
3590;BME280;1809;48.470;9.226;2023-07-24T02:54:54;-16695.28;;;18.91;100.00
3590;BME280;1809;48.470;9.226;2023-07-24T02:57:19;-16698.91;;;19.04;100.00
3590;BME280;1809;48.470;9.226;2023-07-24T02:59:44;-16700.03;;;19.08;100.00
3590;BME280;1809;48.470;9.226;2023-07-24T03:02:10;-16697.78;;;19.00;100.00
3590;BME280;1809;48.470;9.226;2023-07-24T03:04:35;-16698.50;;;19.03;100.00
3590;BME280;1809;48.470;9.226;2023-07-24T03:07:00;-16702.84;;;19.18;100.00
3590;BME280;1809;48.470;9.226;2023-07-24T03:09:25;-16705.06;;;19.26;100.00
3590;BME280;1809;48.470;9.226;2023-07-24T03:11:51;-16705.06;;;19.26;100.00
3590;BME280;1809;48.470;9.226;2023-07-24T03:14:16;-16703.66;;;19.21;100.00
3590;BME280;1809;48.470;9.226;2023-07-24T03:16:41;-16706.59;;;19.32;100.00
3590;BME280;1809;48.470;9.226;2023-07-24T03:19:07;-16708.28;;;19.38;100.00
3590;BME280;1809;48.470;9.226;2023-07-24T03:21:32;-16706.75;;;19.32;100.00
3590;BME280;1809;48.470;9.226;2023-07-24T03:23:57;-16703.94;;;19.22;100.00
3590;BME280;1809;48.470;9.226;2023-07-24T03:26:23;-16703.94;;;19.22;100.00
3590;BME280;1809;48.470;9.226;2023-07-24T03:28:48;-16700.47;;;19.10;100.00
3590;BME280;1809;48.470;9.226;2023-07-24T03:31:13;-16699.19;;;19.05;100.00
3590;BME280;1809;48.470;9.226;2023-07-24T03:33:39;-16697.25;;;18.98;100.00
3590;BME280;1809;48.470;9.226;2023-07-24T03:36:04;-16698.78;;;19.04;100.00
3590;BME280;1809;48.470;9.226;2023-07-24T03:38:30;-16696.69;;;18.96;100.00
3590;BME280;1809;48.470;9.226;2023-07-24T03:40:55;-16698.06;;;19.01;100.00
3590;BME280;1809;48.470;9.226;2023-07-24T03:43:20;-16699.19;;;19.05;100.00
3590;BME280;1809;48.470;9.226;2023-07-24T03:45:46;-16698.91;;;19.04;100.00
3590;BME280;1809;48.470;9.226;2023-07-24T03:48:11;-16699.47;;;19.06;100.00
3590;BME280;1809;48.470;9.226;2023-07-24T03:50:36;-16700.19;;;19.09;100.00
3590;BME280;1809;48.470;9.226;2023-07-24T03:53:01;-16700.59;;;19.10;100.00
3590;BME280;1809;48.470;9.226;2023-07-24T03:55:27;-16701.72;;;19.14;100.00
3590;BME280;1809;48.470;9.226;2023-07-24T03:57:52;-16704.50;;;19.24;100.00
3590;BME280;1809;48.470;9.226;2023-07-24T04:00:17;-16706.19;;;19.30;100.00
3590;BME280;1809;48.470;9.226;2023-07-24T04:02:44;-16711.50;;;19.50;100.00
3590;BME280;1809;48.470;9.226;2023-07-24T04:05:09;-16714.31;;;19.60;100.00
3590;BME280;1809;48.470;9.226;2023-07-24T04:07:34;-16714.59;;;19.61;100.00
3590;BME280;1809;48.470;9.226;2023-07-24T04:10:00;-16714.03;;;19.59;100.00
3590;BME280;1809;48.470;9.226;2023-07-24T04:12:25;-16714.31;;;19.60;100.00
3590;BME280;1809;48.470;9.226;2023-07-24T04:14:50;-16718.50;;;19.75;100.00
3590;BME280;1809;48.470;9.226;2023-07-24T04:17:16;-16722.00;;;19.88;100.00
3590;BME280;1809;48.470;9.226;2023-07-24T04:19:41;-16727.72;;;20.08;100.00
3590;BME280;1809;48.470;9.226;2023-07-24T04:22:07;-16738.91;;;20.49;100.00
3590;BME280;1809;48.470;9.226;2023-07-24T04:24:32;-16745.75;;;20.73;100.00
3590;BME280;1809;48.470;9.226;2023-07-24T04:26:57;-16752.31;;;20.97;100.00
3590;BME280;1809;48.470;9.226;2023-07-24T04:29:23;-16758.75;;;21.20;100.00
3590;BME280;1809;48.470;9.226;2023-07-24T04:31:50;-16763.66;;;21.38;100.00
3590;BME280;1809;48.470;9.226;2023-07-24T04:34:16;-16780.84;;;22.00;100.00
3590;BME280;1809;48.470;9.226;2023-07-24T04:36:41;-16794.22;;;22.48;100.00
3590;BME280;1809;48.470;9.226;2023-07-24T04:39:06;-16805.13;;;22.88;100.00
3590;BME280;1809;48.470;9.226;2023-07-24T04:41:32;-16811.81;;;23.12;100.00
3590;BME280;1809;48.470;9.226;2023-07-24T04:43:57;-16810.28;;;23.07;100.00
3590;BME280;1809;48.470;9.226;2023-07-24T04:46:22;-16795.06;;;22.51;100.00
3590;BME280;1809;48.470;9.226;2023-07-24T04:48:47;-16788.66;;;22.28;100.00
3590;BME280;1809;48.470;9.226;2023-07-24T04:51:13;-16779.28;;;21.94;100.00
3590;BME280;1809;48.470;9.226;2023-07-24T04:53:38;-16776.06;;;21.83;100.00
3590;BME280;1809;48.470;9.226;2023-07-24T04:56:04;-16773.97;;;21.75;100.00
3590;BME280;1809;48.470;9.226;2023-07-24T04:58:29;-16779.28;;;21.94;100.00
3590;BME280;1809;48.470;9.226;2023-07-24T05:00:54;-16782.50;;;22.06;100.00
3590;BME280;1809;48.470;9.226;2023-07-24T05:03:19;-16776.91;;;21.86;100.00
3590;BME280;1809;48.470;9.226;2023-07-24T05:05:48;-16781.66;;;22.03;100.00
3590;BME280;1809;48.470;9.226;2023-07-24T05:08:13;-16783.91;;;22.11;100.00
3590;BME280;1809;48.470;9.226;2023-07-24T05:10:39;-16784.47;;;22.13;100.00
3590;BME280;1809;48.470;9.226;2023-07-24T05:13:04;-16779.72;;;21.96;100.00
3590;BME280;1809;48.470;9.226;2023-07-24T05:15:29;-16785.84;;;22.18;100.00
3590;BME280;1809;48.470;9.226;2023-07-24T05:17:55;-16791.16;;;22.37;100.00
3590;BME280;1809;48.470;9.226;2023-07-24T05:20:20;-16798.28;;;22.63;100.00
3590;BME280;1809;48.470;9.226;2023-07-24T05:22:45;-16810.16;;;23.06;100.00
3590;BME280;1809;48.470;9.226;2023-07-24T05:25:11;-16829.13;;;23.75;100.00
3590;BME280;1809;48.470;9.226;2023-07-24T05:27:36;-16848.38;;;24.44;100.00
3590;BME280;1809;48.470;9.226;2023-07-24T05:30:02;-16856.75;;;24.75;100.00
3590;BME280;1809;48.470;9.226;2023-07-24T05:32:27;-16855.63;;;24.71;100.00
3590;BME280;1809;48.470;9.226;2023-07-24T05:34:52;-16847.53;;;24.41;100.00
3590;BME280;1809;48.470;9.226;2023-07-24T05:37:18;-16835.41;;;23.97;100.00
3590;BME280;1809;48.470;9.226;2023-07-24T05:39:43;-16828.28;;;23.72;100.00
3590;BME280;1809;48.470;9.226;2023-07-24T05:42:08;-16820.75;;;23.44;100.00
3590;BME280;1809;48.470;9.226;2023-07-24T05:44:34;-16808.88;;;23.01;100.00
3590;BME280;1809;48.470;9.226;2023-07-24T05:47:02;-16804.28;;;22.85;100.00
3590;BME280;1809;48.470;9.226;2023-07-24T05:49:27;-16800.66;;;22.72;100.00
3590;BME280;1809;48.470;9.226;2023-07-24T05:51:53;-16800.66;;;22.72;100.00
3590;BME280;1809;48.470;9.226;2023-07-24T05:54:19;-16796.19;;;22.56;100.00
3590;BME280;1809;48.470;9.226;2023-07-24T05:56:44;-16789.75;;;22.32;100.00
3590;BME280;1809;48.470;9.226;2023-07-24T05:59:09;-16786.69;;;22.21;100.00
3590;BME280;1809;48.470;9.226;2023-07-24T06:01:35;-16786.41;;;22.20;100.00
3590;BME280;1809;48.470;9.226;2023-07-24T06:04:00;-16779.16;;;21.94;100.00
3590;BME280;1809;48.470;9.226;2023-07-24T06:06:26;-16777.19;;;21.87;100.00
3590;BME280;1809;48.470;9.226;2023-07-24T06:08:53;-16774.25;;;21.76;100.00
3590;BME280;1809;48.470;9.226;2023-07-24T06:11:18;-16774.97;;;21.79;100.00
3590;BME280;1809;48.470;9.226;2023-07-24T06:13:43;-16776.06;;;21.83;100.00
3590;BME280;1809;48.470;9.226;2023-07-24T06:16:09;-16769.09;;;21.58;100.00
3590;BME280;1809;48.470;9.226;2023-07-24T06:18:35;-16759.47;;;21.23;100.00
3590;BME280;1809;48.470;9.226;2023-07-24T06:21:00;-16754.69;;;21.06;100.00
3590;BME280;1809;48.470;9.226;2023-07-24T06:23:26;-16751.78;;;20.95;100.00
3590;BME280;1809;48.470;9.226;2023-07-24T06:25:51;-16747.84;;;20.81;100.00
3590;BME280;1809;48.470;9.226;2023-07-24T06:28:18;-16749.38;;;20.86;100.00
3590;BME280;1809;48.470;9.226;2023-07-24T06:30:43;-16750.66;;;20.91;100.00
3590;BME280;1809;48.470;9.226;2023-07-24T06:33:08;-16746.47;;;20.76;100.00
3590;BME280;1809;48.470;9.226;2023-07-24T06:35:34;-16749.53;;;20.87;100.00
3590;BME280;1809;48.470;9.226;2023-07-24T06:37:59;-16752.03;;;20.96;100.00
3590;BME280;1809;48.470;9.226;2023-07-24T06:40:25;-16751.91;;;20.96;100.00
3590;BME280;1809;48.470;9.226;2023-07-24T06:42:50;-16757.91;;;21.17;100.00
3590;BME280;1809;48.470;9.226;2023-07-24T06:45:15;-16764.06;;;21.39;100.00
3590;BME280;1809;48.470;9.226;2023-07-24T06:47:41;-16769.66;;;21.60;100.00
3590;BME280;1809;48.470;9.226;2023-07-24T06:50:07;-16777.75;;;21.89;100.00
3590;BME280;1809;48.470;9.226;2023-07-24T06:52:32;-16783.63;;;22.10;100.00
3590;BME280;1809;48.470;9.226;2023-07-24T06:54:58;-16794.66;;;22.50;100.00
3590;BME280;1809;48.470;9.226;2023-07-24T06:57:24;-16799.97;;;22.69;100.00
3590;BME280;1809;48.470;9.226;2023-07-24T06:59:49;-16805.69;;;22.90;100.00
3590;BME280;1809;48.470;9.226;2023-07-24T07:02:15;-16810.56;;;23.08;100.00
3590;BME280;1809;48.470;9.226;2023-07-24T07:04:40;-16807.22;;;22.95;100.00
3590;BME280;1809;48.470;9.226;2023-07-24T07:07:05;-16811.81;;;23.12;100.00
3590;BME280;1809;48.470;9.226;2023-07-24T07:09:30;-16818.94;;;23.38;100.00
3590;BME280;1809;48.470;9.226;2023-07-24T07:11:56;-16820.47;;;23.43;100.00
3590;BME280;1809;48.470;9.226;2023-07-24T07:14:21;-16820.19;;;23.42;100.00
3590;BME280;1809;48.470;9.226;2023-07-24T07:16:46;-16821.88;;;23.48;100.00
3590;BME280;1809;48.470;9.226;2023-07-24T07:19:12;-16824.09;;;23.57;100.00
3590;BME280;1809;48.470;9.226;2023-07-24T07:21:38;-16824.09;;;23.57;100.00
3590;BME280;1809;48.470;9.226;2023-07-24T07:24:03;-16835.41;;;23.97;100.00
3590;BME280;1809;48.470;9.226;2023-07-24T07:26:29;-16851.72;;;24.56;100.00
3590;BME280;1809;48.470;9.226;2023-07-24T07:28:55;-16883.09;;;25.70;100.00
3590;BME280;1809;48.470;9.226;2023-07-24T07:31:21;-16896.59;;;26.19;100.00
3590;BME280;1809;48.470;9.226;2023-07-24T07:33:46;-16920.13;;;27.04;100.00
3590;BME280;1809;48.470;9.226;2023-07-24T07:36:11;-16947.13;;;28.02;100.00
3590;BME280;1809;48.470;9.226;2023-07-24T07:38:37;-16956.44;;;28.36;100.00
3590;BME280;1809;48.470;9.226;2023-07-24T07:41:05;-16971.47;;;28.91;100.00
3590;BME280;1809;48.470;9.226;2023-07-24T07:43:30;-16973.13;;;28.97;100.00
3590;BME280;1809;48.470;9.226;2023-07-24T07:45:56;-16979.25;;;29.19;100.00
3590;BME280;1809;48.470;9.226;2023-07-24T07:48:22;-16955.47;;;28.33;100.00
3590;BME280;1809;48.470;9.226;2023-07-24T07:50:51;-16946.84;;;28.01;100.00
3590;BME280;1809;48.470;9.226;2023-07-24T07:53:17;-16931.41;;;27.45;100.00
3590;BME280;1809;48.470;9.226;2023-07-24T07:55:42;-16908.84;;;26.63;100.00
3590;BME280;1809;48.470;9.226;2023-07-24T07:58:07;-16893.25;;;26.07;100.00
3590;BME280;1809;48.470;9.226;2023-07-24T08:00:33;-16882.94;;;25.70;100.00
3590;BME280;1809;48.470;9.226;2023-07-24T08:02:58;-16872.63;;;25.32;100.00
3590;BME280;1809;48.470;9.226;2023-07-24T08:05:23;-16869.16;;;25.20;100.00
3590;BME280;1809;48.470;9.226;2023-07-24T08:07:49;-16869.84;;;25.22;100.00
3590;BME280;1809;48.470;9.226;2023-07-24T08:10:14;-16869.72;;;25.22;100.00
3590;BME280;1809;48.470;9.226;2023-07-24T08:12:42;-16871.94;;;25.30;100.00
3590;BME280;1809;48.470;9.226;2023-07-24T08:15:08;-16872.78;;;25.33;100.00
3590;BME280;1809;48.470;9.226;2023-07-24T08:17:33;-16878.34;;;25.53;100.00
3590;BME280;1809;48.470;9.226;2023-07-24T08:19:59;-16883.22;;;25.71;100.00
3590;BME280;1809;48.470;9.226;2023-07-24T08:22:24;-16885.19;;;25.78;100.00
3590;BME280;1809;48.470;9.226;2023-07-24T08:24:49;-16882.81;;;25.69;100.00
3590;BME280;1809;48.470;9.226;2023-07-24T08:27:16;-16872.78;;;25.33;100.00
3590;BME280;1809;48.470;9.226;2023-07-24T08:29:41;-16862.31;;;24.95;100.00
3590;BME280;1809;48.470;9.226;2023-07-24T08:32:07;-16855.47;;;24.70;100.00
3590;BME280;1809;48.470;9.226;2023-07-24T08:34:33;-16857.72;;;24.78;100.00
3590;BME280;1809;48.470;9.226;2023-07-24T08:36:58;-16863.16;;;24.98;100.00
3590;BME280;1809;48.470;9.226;2023-07-24T08:39:23;-16868.72;;;25.18;100.00
3590;BME280;1809;48.470;9.226;2023-07-24T08:41:49;-16872.63;;;25.32;100.00
3590;BME280;1809;48.470;9.226;2023-07-24T08:44:14;-16877.22;;;25.49;100.00
3590;BME280;1809;48.470;9.226;2023-07-24T08:46:41;-16877.09;;;25.48;100.00
3590;BME280;1809;48.470;9.226;2023-07-24T08:49:14;-16873.75;;;25.36;100.00
3590;BME280;1809;48.470;9.226;2023-07-24T08:51:40;-16871.25;;;25.27;100.00
3590;BME280;1809;48.470;9.226;2023-07-24T08:54:06;-16863.72;;;25.00;100.00
3590;BME280;1809;48.470;9.226;2023-07-24T08:56:33;-16860.09;;;24.87;100.00
3590;BME280;1809;48.470;9.226;2023-07-24T08:58:58;-16852.56;;;24.59;100.00
3590;BME280;1809;48.470;9.226;2023-07-24T09:01:24;-16846.97;;;24.39;100.00
3590;BME280;1809;48.470;9.226;2023-07-24T09:03:49;-16842.09;;;24.22;100.00
3590;BME280;1809;48.470;9.226;2023-07-24T09:06:15;-16838.31;;;24.08;100.00
3590;BME280;1809;48.470;9.226;2023-07-24T09:08:42;-16836.25;;;24.00;100.00
3590;BME280;1809;48.470;9.226;2023-07-24T09:11:10;-16834.84;;;23.95;100.00
3590;BME280;1809;48.470;9.226;2023-07-24T09:13:38;-16836.66;;;24.02;100.00
3590;BME280;1809;48.470;9.226;2023-07-24T09:16:03;-16842.94;;;24.25;100.00
3590;BME280;1809;48.470;9.226;2023-07-24T09:18:55;-16846.41;;;24.37;100.00
3590;BME280;1809;48.470;9.226;2023-07-24T09:21:31;-16848.94;;;24.46;100.00
3590;BME280;1809;48.470;9.226;2023-07-24T09:23:57;-16850.31;;;24.51;100.00
3590;BME280;1809;48.470;9.226;2023-07-24T09:26:23;-16848.66;;;24.45;100.00
3590;BME280;1809;48.470;9.226;2023-07-24T09:28:54;-16848.09;;;24.43;100.00
3590;BME280;1809;48.470;9.226;2023-07-24T09:31:20;-16846.69;;;24.38;100.00
3590;BME280;1809;48.470;9.226;2023-07-24T09:33:45;-16841.97;;;24.21;100.00
3590;BME280;1809;48.470;9.226;2023-07-24T09:36:11;-16843.91;;;24.28;100.00
3590;BME280;1809;48.470;9.226;2023-07-24T09:38:39;-16837.06;;;24.03;100.00
3590;BME280;1809;48.470;9.226;2023-07-24T09:41:05;-16829.69;;;23.77;100.00
3590;BME280;1809;48.470;9.226;2023-07-24T09:43:31;-16831.91;;;23.85;100.00
3590;BME280;1809;48.470;9.226;2023-07-24T09:45:57;-16832.88;;;23.88;100.00
3590;BME280;1809;48.470;9.226;2023-07-24T09:48:26;-16831.91;;;23.85;100.00
3590;BME280;1809;48.470;9.226;2023-07-24T09:50:57;-16832.63;;;23.87;100.00
3590;BME280;1809;48.470;9.226;2023-07-24T09:53:47;-16834.16;;;23.93;100.00
3590;BME280;1809;48.470;9.226;2023-07-24T09:56:17;-16834.44;;;23.94;100.00
3590;BME280;1809;48.470;9.226;2023-07-24T09:58:44;-16832.75;;;23.88;100.00
3590;BME280;1809;48.470;9.226;2023-07-24T10:01:10;-16827.88;;;23.70;100.00
3590;BME280;1809;48.470;9.226;2023-07-24T10:03:38;-16820.75;;;23.44;100.00
3590;BME280;1809;48.470;9.226;2023-07-24T10:06:04;-16815.72;;;23.26;100.00
3590;BME280;1809;48.470;9.226;2023-07-24T10:08:30;-16810.16;;;23.06;100.00
3590;BME280;1809;48.470;9.226;2023-07-24T10:10:58;-16802.34;;;22.78;100.00
3590;BME280;1809;48.470;9.226;2023-07-24T10:13:25;-16798.56;;;22.64;100.00
3590;BME280;1809;48.470;9.226;2023-07-24T10:15:51;-16787.81;;;22.25;100.00
3590;BME280;1809;48.470;9.226;2023-07-24T10:18:17;111.28;;;22.06;100.00
3590;BME280;1809;48.470;9.226;2023-07-24T10:20:43;6890.13;;;21.62;100.00
3590;BME280;1809;48.470;9.226;2023-07-24T10:23:10;67419.78;;;20.97;100.00
3590;BME280;1809;48.470;9.226;2023-07-24T10:25:38;111076.81;;;20.40;100.00
3590;BME280;1809;48.470;9.226;2023-07-24T10:28:10;128116.53;;;19.86;100.00
3590;BME280;1809;48.470;9.226;2023-07-24T10:30:40;138205.59;;;19.46;100.00
3590;BME280;1809;48.470;9.226;2023-07-24T10:33:11;145543.28;;;19.25;100.00
3590;BME280;1809;48.470;9.226;2023-07-24T10:35:45;150412.00;;;19.00;100.00
3590;BME280;1809;48.470;9.226;2023-07-24T10:38:12;156372.25;;;18.87;100.00
3590;BME280;1809;48.470;9.226;2023-07-24T10:40:40;158815.16;;;18.76;100.00
3590;BME280;1809;48.470;9.226;2023-07-24T10:43:08;159489.66;;;18.64;100.00
3590;BME280;1809;48.470;9.226;2023-07-24T10:45:47;159480.56;;;18.60;100.00
3590;BME280;1809;48.470;9.226;2023-07-24T10:48:14;159438.44;;;18.44;100.00
3590;BME280;1809;48.470;9.226;2023-07-24T10:50:44;159441.09;;;18.45;100.00
3590;BME280;1809;48.470;9.226;2023-07-24T10:53:11;159456.91;;;18.51;100.00
3590;BME280;1809;48.470;9.226;2023-07-24T10:55:37;159467.44;;;18.55;100.00
3590;BME280;1809;48.470;9.226;2023-07-24T10:58:02;159463.47;;;18.53;100.00
3590;BME280;1809;48.470;9.226;2023-07-24T11:00:28;159471.34;;;18.56;100.00
3590;BME280;1809;48.470;9.226;2023-07-24T11:02:54;159446.31;;;18.47;100.00
3590;BME280;1809;48.470;9.226;2023-07-24T11:05:23;159443.72;;;18.46;100.00
3590;BME280;1809;48.470;9.226;2023-07-24T11:07:49;159445.06;;;18.46;100.00
3590;BME280;1809;48.470;9.226;2023-07-24T11:10:19;159443.72;;;18.46;100.00
3590;BME280;1809;48.470;9.226;2023-07-24T11:12:45;159462.13;;;18.53;100.00
3590;BME280;1809;48.470;9.226;2023-07-24T11:15:12;159485.78;;;18.62;100.00
3590;BME280;1809;48.470;9.226;2023-07-24T11:17:39;159476.63;;;18.58;100.00
3590;BME280;1809;48.470;9.226;2023-07-24T11:20:16;159491.09;;;18.64;100.00
3590;BME280;1809;48.470;9.226;2023-07-24T11:22:43;159504.22;;;18.69;100.00
3590;BME280;1809;48.470;9.226;2023-07-24T11:25:09;159541.03;;;18.83;100.00
3590;BME280;1809;48.470;9.226;2023-07-24T11:27:42;159619.91;;;19.13;100.00
3590;BME280;1809;48.470;9.226;2023-07-24T11:30:10;159733.03;;;19.57;100.00
3590;BME280;1809;48.470;9.226;2023-07-24T11:32:40;159835.59;;;19.96;100.00
3590;BME280;1809;48.470;9.226;2023-07-24T11:35:07;159917.22;;;20.27;100.00
3590;BME280;1809;48.470;9.226;2023-07-24T11:37:34;152837.72;;;20.25;100.00
3590;BME280;1809;48.470;9.226;2023-07-24T11:40:02;148628.41;;;20.36;100.00
3590;BME280;1809;48.470;9.226;2023-07-24T11:42:30;141689.47;;;20.85;100.00
3590;BME280;1809;48.470;9.226;2023-07-24T11:44:55;136868.28;;;21.34;100.00
3590;BME280;1809;48.470;9.226;2023-07-24T11:47:21;123507.63;;;21.34;100.00
3590;BME280;1809;48.470;9.226;2023-07-24T11:49:57;99056.84;;;21.53;100.00
3590;BME280;1809;48.470;9.226;2023-07-24T11:52:22;86568.78;;;21.80;100.00
3590;BME280;1809;48.470;9.226;2023-07-24T11:54:56;83813.75;;;21.98;100.00
3590;BME280;1809;48.470;9.226;2023-07-24T11:57:26;73761.75;;;22.03;100.00
3590;BME280;1809;48.470;9.226;2023-07-24T11:59:51;53774.91;;;22.50;100.00
3590;BME280;1809;48.470;9.226;2023-07-24T12:02:19;38307.59;;;22.55;100.00
3590;BME280;1809;48.470;9.226;2023-07-24T12:04:45;10302.09;;;22.74;100.00
3590;BME280;1809;48.470;9.226;2023-07-24T12:07:10;-16821.31;;;23.46;100.00
3590;BME280;1809;48.470;9.226;2023-07-24T12:09:36;-16823.81;;;23.55;100.00
3590;BME280;1809;48.470;9.226;2023-07-24T12:12:03;-16821.59;;;23.47;100.00
3590;BME280;1809;48.470;9.226;2023-07-24T12:14:29;-16832.19;;;23.86;100.00
3590;BME280;1809;48.470;9.226;2023-07-24T12:17:02;-16840.00;;;24.14;100.00
3590;BME280;1809;48.470;9.226;2023-07-24T12:19:27;-16848.09;;;24.43;100.00
3590;BME280;1809;48.470;9.226;2023-07-24T12:21:53;-16860.38;;;24.88;100.00
3590;BME280;1809;48.470;9.226;2023-07-24T12:24:18;-16863.44;;;24.99;100.00
3590;BME280;1809;48.470;9.226;2023-07-24T12:26:43;-16865.66;;;25.07;100.00
3590;BME280;1809;48.470;9.226;2023-07-24T12:29:09;-16871.38;;;25.28;100.00
3590;BME280;1809;48.470;9.226;2023-07-24T12:31:34;-16868.44;;;25.17;100.00
3590;BME280;1809;48.470;9.226;2023-07-24T12:33:59;-16863.84;;;25.00;100.00
3590;BME280;1809;48.470;9.226;2023-07-24T12:36:25;-16863.16;;;24.98;100.00
3590;BME280;1809;48.470;9.226;2023-07-24T12:38:50;-16861.19;;;24.91;100.00
3590;BME280;1809;48.470;9.226;2023-07-24T12:41:15;-16865.81;;;25.07;100.00
3590;BME280;1809;48.470;9.226;2023-07-24T12:43:40;-16869.56;;;25.21;100.00
3590;BME280;1809;48.470;9.226;2023-07-24T12:46:06;-16875.13;;;25.41;100.00
3590;BME280;1809;48.470;9.226;2023-07-24T12:48:31;-16876.81;;;25.47;100.00
3590;BME280;1809;48.470;9.226;2023-07-24T12:50:57;-16878.63;;;25.54;100.00
3590;BME280;1809;48.470;9.226;2023-07-24T12:53:23;-16879.31;;;25.56;100.00
3590;BME280;1809;48.470;9.226;2023-07-24T12:55:48;-16877.94;;;25.51;100.00
3590;BME280;1809;48.470;9.226;2023-07-24T12:58:13;-16882.38;;;25.67;100.00
3590;BME280;1809;48.470;9.226;2023-07-24T13:00:39;-16884.91;;;25.77;100.00
3590;BME280;1809;48.470;9.226;2023-07-24T13:03:04;-16889.78;;;25.94;100.00